UHBB

Details ICAO UHBB (BQS)
Name IGNATYEVO
Region Russia
Timezone Asia/Yakutsk (UTC+9.0)
Plans Departing 48
Arriving 51
Stats Elevation 638 ft / 194 m (AMSL)
Location 50.425395° 127.412489°
Runways 1
Magnetic Variation 12.282° W
Sunrise 2018-05-22 19:34:38 UTC / 2018-05-23 04:34:38 Local
Sunset 2018-05-23 11:22:21 UTC / 2018-05-23 20:22:21 Local
Advertisement - Login to hide

Runways

ID Width Length Bearing (true) Bearing (mag) Surface Threshold Offset Overrun Length
18 148 ft / 45 m 9,254 ft / 2,821 m 168.30° 180.58° Asphalt 0 ft / 0 m 145 ft / 44 m
36 148 ft / 45 m 9,254 ft / 2,821 m 348.30° 0.58° Asphalt 0 ft / 0 m 160 ft / 49 m

Approach Navaids

Runway Type Ident Frequency Range Bearing (true) Bearing (mag) Slope Elevation
36 Localiser ILZ 108.70 MHz 18 nm / 33 km 348.31° 0.59° - 638 ft / 194 m (AMSL)
36 Glidescope ILZ 108.70 MHz 10 nm / 19 km 348.30° 0.58° 3.05° 638 ft / 194 m (AMSL)

Map

Weather


0- 5 10 15 20 25 30 35+ Temperature / ° C

Clouds and Precipitation
Forecast for 2018-05-23 06:00 UTC. Updated 24 minutes ago

Ground ~20,000 ft ~40,000 ft Winds

METAR

UHBB 230530Z 16003MPS 9999 SCT033CB 16/M06 Q0996 R18/090060 NOSIG RMK QFE732/0976

TAF

TAF UHBB 230142Z 2303/2403 21006MPS 9999 SCT030CB BECMG 2308/2310 18003MPS FM231800 36003MPS 9999 NSC TEMPO 2318/2324 2100 BR SCT007

Frequencies

Tower 127.20 MHz BLAGOVESCHENSK START
Warning: Do not use this data for real-world aviation or navigation. No guarantee of current accuracy is given.